West Yarmouth, MA

8:56 PM EDT on September 28, 2016 (GMT -0400)
Barnstable Municipal-Boardman-Polando Field | | Change Station

Elev 52 ft 41.67 °N, 70.28 °W | Updated 1 hour ago

Light Rain
Light Rain Mist
60 °F
Feels Like 60 °F
N
13
Wind Variable Wind from NE

Today
High -- | Low -- °F
--% Chance of Precip.
Yesterday
High -- | Low -- °F
Precip. -- in
Pressure 30.21 in
Visibility 5.0 miles
Clouds Overcast 700 ft
Dew Point 58 °F
Humidity 93%
Rainfall 0.01 in
Snow Depth Not available.
6:35 AM 6:27 PM
Waning Crescent, 4% visible
METAR KHYA 282356Z 04011KT 5SM -RA BR OVC007 16/14 A3021 RMK AO2 RAB13 SLP230 P0000 60001 T01560144 10167 20156 53009
Pressure 30.21 in
Visibility 5.0 miles
Clouds Overcast 700 ft
Dew Point 58 °F
Humidity 93%
Rainfall 0.01 in
Snow Depth Not available.
6:35 AM 6:27 PM
Waning Crescent, 4% visible
METAR KHYA 282356Z 04011KT 5SM -RA BR OVC007 16/14 A3021 RMK AO2 RAB13 SLP230 P0000 60001 T01560144 10167 20156 53009

10-Day Weather Forecast

Almanac

Astronomy

Sep. 28, 2016 Rise Set
Actual Time
Civil Twilight
Nautical Twilight
Astronomical Twilight
Moon
Length of Visible Light
Length of Day
Tomorrow will be .
, % of the Moon is Illuminated

Today's Extremes

State Highs State Lows

Community

WunderPhotos

Upload Photos

1,942,370 photos uploaded!

WunderBlog® & News

Nearby

Air Quality

  Air Quality AQ Index Pollutant
Not available.

Snow Depth

Station Depth Elevation

Earthquake Activity

City Distance Mag. Time & Date
Minimum magnitude displayed is 2.5.

Coastal Water Temperatures

Place Temperature

Stations

Nearby Weather Stations

Station Location Temp. Windchill Dew Point Humidity Wind Precip. Elev Updated Type
                   

Watches & Warnings

There are currently no watches in effect.